createdAt,value
2019-02-26T00:00:27.126Z,31.82
2019-02-26T00:03:02.162Z,30.77
2019-02-26T00:05:30.726Z,27.93
2019-02-26T00:08:02.643Z,29.20
2019-02-26T00:10:35.886Z,30.27
2019-02-26T00:13:04.129Z,30.00
2019-02-26T00:15:35.883Z,29.30
2019-02-26T00:18:07.514Z,30.70
2019-02-26T00:20:39.084Z,31.07
2019-02-26T00:23:08.161Z,30.23
2019-02-26T00:25:37.844Z,29.93
2019-02-26T00:28:08.435Z,33.03
2019-02-26T00:30:40.256Z,32.43
2019-02-26T00:33:09.568Z,28.87
2019-02-26T00:35:41.653Z,28.17
2019-02-26T00:38:13.257Z,28.27
2019-02-26T00:40:43.284Z,27.17
2019-02-26T00:43:12.936Z,24.67
2019-02-26T00:45:42.646Z,30.33
2019-02-26T00:48:12.561Z,31.00
2019-02-26T00:50:42.248Z,25.37
2019-02-26T00:53:11.937Z,30.30
2019-02-26T00:55:41.597Z,27.23
2019-02-26T00:58:12.854Z,29.90
2019-02-26T01:00:42.488Z,31.30
2019-02-26T01:03:13.586Z,24.10
2019-02-26T01:05:45.426Z,28.43
2019-02-26T01:08:16.990Z,31.00
2019-02-26T01:10:46.760Z,27.03
2019-02-26T01:13:16.472Z,27.57
2019-02-26T01:15:46.139Z,24.37
2019-02-26T01:18:15.820Z,27.10
2019-02-26T01:20:48.323Z,27.57
2019-02-26T01:23:19.470Z,26.50
2019-02-26T01:25:48.832Z,24.95
2019-02-26T01:28:20.292Z,25.25
2019-02-26T01:30:53.681Z,27.17
2019-02-26T01:33:22.288Z,25.30
2019-02-26T01:35:55.373Z,25.43
2019-02-26T01:38:24.400Z,23.63
2019-02-26T01:40:55.924Z,21.97
2019-02-26T01:43:25.689Z,26.33
2019-02-26T01:45:55.534Z,26.17
2019-02-26T01:48:25.376Z,25.90
2019-02-26T01:50:57.474Z,25.87
2019-02-26T01:53:27.404Z,24.87
2019-02-26T01:55:57.215Z,23.90
2019-02-26T01:58:26.890Z,23.00
2019-02-26T02:00:56.574Z,23.50
2019-02-26T02:03:27.988Z,24.13
2019-02-26T02:05:57.617Z,22.40
2019-02-26T02:08:27.272Z,23.07
2019-02-26T02:10:59.344Z,25.67
2019-02-26T02:13:30.571Z,25.87
2019-02-26T02:16:02.135Z,25.37
2019-02-26T02:18:32.184Z,23.27
2019-02-26T02:21:01.844Z,21.45
2019-02-26T02:23:31.517Z,21.97
2019-02-26T02:26:04.238Z,24.07
2019-02-26T02:28:33.716Z,24.57
2019-02-26T02:31:05.281Z,26.15
2019-02-26T02:33:37.030Z,30.67
2019-02-26T02:36:06.661Z,27.13
2019-02-26T02:38:37.213Z,24.87
2019-02-26T02:41:06.946Z,26.17
2019-02-26T02:43:36.629Z,25.90
2019-02-26T02:46:06.631Z,22.77
2019-02-26T02:48:36.571Z,22.50
2019-02-26T02:51:08.459Z,27.20
2019-02-26T02:53:37.629Z,24.90
2019-02-26T02:56:10.547Z,26.50
2019-02-26T02:58:41.807Z,26.97
2019-02-26T03:01:13.862Z,28.80
2019-02-26T03:03:45.254Z,26.87
2019-02-26T03:06:14.874Z,26.20
2019-02-26T03:08:45.207Z,25.97
2019-02-26T03:11:15.929Z,23.87
2019-02-26T03:13:48.354Z,24.53
2019-02-26T03:16:19.492Z,23.50
2019-02-26T03:18:48.589Z,22.87
2019-02-26T03:21:20.162Z,25.25
2019-02-26T03:23:49.844Z,26.37
2019-02-26T03:26:20.514Z,25.55
2019-02-26T03:28:53.305Z,22.53
2019-02-26T03:31:28.483Z,24.67
2019-02-26T03:33:59.924Z,26.63
2019-02-26T03:36:25.839Z,29.00
2019-02-26T03:38:57.276Z,24.03
2019-02-26T03:41:28.889Z,25.53
2019-02-26T03:44:00.701Z,25.93
2019-02-26T03:46:31.089Z,24.03
2019-02-26T03:49:02.677Z,26.73
2019-02-26T03:51:32.412Z,27.37
2019-02-26T03:54:02.064Z,24.57
2019-02-26T03:56:31.811Z,24.33
2019-02-26T03:59:05.759Z,24.50
2019-02-26T04:01:33.215Z,25.60
2019-02-26T04:04:04.800Z,23.17
2019-02-26T04:06:36.575Z,23.03
2019-02-26T04:09:08.576Z,24.70
2019-02-26T04:11:40.810Z,26.70
2019-02-26T04:14:12.663Z,24.17
2019-02-26T04:16:43.647Z,24.43
2019-02-26T04:19:13.418Z,23.30
2019-02-26T04:22:26.950Z,25.80
2019-02-26T04:25:06.383Z,24.33
2019-02-26T04:28:13.297Z,21.53
2019-02-26T04:31:26.206Z,22.70
2019-02-26T04:34:33.052Z,22.27
2019-02-26T04:37:44.084Z,20.97
2019-02-26T04:41:00.409Z,21.60
2019-02-26T04:44:08.556Z,25.33
2019-02-26T04:47:27.420Z,27.10
2019-02-26T04:50:00.513Z,25.23
2019-02-26T04:52:32.363Z,21.93
2019-02-26T04:55:01.159Z,24.17
2019-02-26T04:57:30.914Z,23.43
2019-02-26T05:00:02.443Z,27.97
2019-02-26T05:02:34.014Z,27.33
2019-02-26T05:05:04.378Z,23.80
2019-02-26T05:07:35.589Z,25.37
2019-02-26T05:10:05.530Z,26.43
2019-02-26T05:12:37.879Z,22.63
2019-02-26T05:15:11.610Z,23.50
2019-02-26T05:17:38.584Z,24.77
2019-02-26T05:20:10.672Z,22.30
2019-02-26T05:22:39.998Z,24.37
2019-02-26T05:25:13.770Z,24.77
2019-02-26T05:27:42.848Z,26.03
2019-02-26T05:30:16.513Z,23.47
2019-02-26T05:32:45.771Z,26.00
2019-02-26T05:35:18.078Z,24.80
2019-02-26T05:37:47.076Z,23.00
2019-02-26T05:40:21.517Z,21.90
2019-02-26T05:42:48.364Z,29.27
2019-02-26T05:45:18.048Z,22.63
2019-02-26T05:47:50.578Z,23.03
2019-02-26T05:50:19.185Z,23.65
2019-02-26T05:52:50.276Z,25.50
2019-02-26T05:55:23.023Z,25.03
2019-02-26T05:57:51.626Z,27.07
2019-02-26T06:00:25.443Z,25.55
2019-02-26T06:02:53.245Z,27.47
2019-02-26T06:05:25.541Z,23.62
2019-02-26T06:07:54.319Z,26.77
2019-02-26T06:10:25.152Z,24.50
2019-02-26T06:12:55.751Z,25.13
2019-02-26T06:15:26.483Z,28.07
2019-02-26T06:17:57.003Z,26.73
2019-02-26T06:20:29.250Z,25.70
2019-02-26T06:22:58.279Z,24.60
2019-02-26T06:25:27.958Z,25.87
2019-02-26T06:28:02.314Z,27.17
2019-02-26T06:30:29.973Z,25.07
2019-02-26T06:33:02.104Z,27.33
2019-02-26T06:35:31.908Z,26.20
2019-02-26T06:38:04.411Z,28.33
2019-02-26T06:40:36.755Z,29.60
2019-02-26T06:43:05.740Z,30.23
2019-02-26T06:45:36.047Z,25.03
2019-02-26T06:48:06.757Z,32.97
2019-02-26T06:50:38.757Z,33.40
2019-02-26T06:53:10.999Z,33.83
2019-02-26T06:55:40.401Z,31.27
2019-02-26T06:58:20.477Z,28.12
2019-02-26T07:00:54.668Z,27.07
2019-02-26T07:03:24.189Z,26.60
2019-02-26T07:05:53.586Z,27.33
2019-02-26T07:08:24.228Z,26.63
2019-02-26T07:10:54.877Z,25.43
2019-02-26T07:13:25.526Z,25.07
2019-02-26T07:15:55.191Z,25.97
2019-02-26T07:18:24.855Z,26.90
2019-02-26T07:20:57.599Z,25.13
2019-02-26T07:23:29.277Z,25.43
2019-02-26T07:25:57.452Z,27.97
2019-02-26T07:28:27.123Z,24.80
2019-02-26T07:30:57.065Z,28.10
2019-02-26T07:33:27.499Z,29.73
2019-02-26T07:35:59.420Z,28.87
2019-02-26T07:38:29.785Z,30.67
2019-02-26T07:41:01.874Z,32.83
2019-02-26T07:43:31.154Z,37.67
2019-02-26T07:46:01.095Z,41.77
2019-02-26T07:48:31.737Z,46.07
2019-02-26T07:51:02.321Z,50.93
2019-02-26T07:53:32.064Z,46.70
2019-02-26T07:56:04.413Z,48.87
2019-02-26T07:58:36.077Z,45.30
2019-02-26T08:01:05.320Z,48.10
2019-02-26T08:03:35.127Z,45.03
2019-02-26T08:06:07.227Z,41.47
2019-02-26T08:08:39.678Z,45.00
2019-02-26T08:11:09.052Z,45.33
2019-02-26T08:13:38.737Z,41.13
2019-02-26T08:16:08.473Z,38.30
2019-02-26T08:18:38.152Z,41.77
2019-02-26T08:21:07.910Z,38.90
2019-02-26T08:23:37.598Z,59.20
2019-02-26T08:26:07.356Z,47.33
2019-02-26T08:28:38.902Z,43.83
2019-02-26T08:31:11.245Z,41.53
2019-02-26T08:33:40.041Z,36.50
2019-02-26T08:36:13.572Z,35.15
2019-02-26T08:38:41.126Z,36.33
2019-02-26T08:41:10.786Z,38.60
2019-02-26T08:43:44.183Z,40.43
2019-02-26T08:46:13.956Z,37.90
2019-02-26T08:48:45.596Z,37.80
2019-02-26T08:51:16.869Z,46.90
2019-02-26T08:53:47.588Z,44.57
2019-02-26T08:56:18.823Z,41.83
2019-02-26T08:58:48.648Z,40.67
2019-02-26T09:01:18.320Z,34.83
2019-02-26T09:03:50.688Z,39.77
2019-02-26T09:06:19.924Z,32.53
2019-02-26T09:08:49.594Z,35.93
2019-02-26T09:11:19.499Z,32.67
2019-02-26T09:13:49.196Z,30.80
2019-02-26T09:16:21.784Z,32.40
2019-02-26T09:18:50.321Z,36.27
2019-02-26T09:21:21.114Z,34.67
2019-02-26T09:23:56.346Z,31.90
2019-02-26T09:26:22.768Z,31.60
2019-02-26T09:28:54.860Z,29.17
2019-02-26T09:31:23.874Z,34.53
2019-02-26T09:33:53.584Z,35.13
2019-02-26T09:36:24.206Z,33.50
2019-02-26T09:38:55.452Z,34.90
2019-02-26T09:41:25.172Z,33.83
2019-02-26T09:43:55.127Z,36.47
2019-02-26T09:46:24.800Z,34.00
2019-02-26T09:48:54.729Z,30.53
2019-02-26T09:51:24.386Z,31.60
2019-02-26T09:53:56.170Z,26.70
2019-02-26T09:56:25.443Z,30.37
2019-02-26T09:58:55.366Z,31.87
2019-02-26T10:01:25.015Z,30.77
2019-02-26T10:03:55.998Z,30.93
2019-02-26T10:06:26.308Z,29.00
2019-02-26T10:08:56.264Z,27.63
2019-02-26T10:11:27.911Z,29.17
2019-02-26T10:13:57.333Z,31.50
2019-02-26T10:16:28.225Z,31.63
2019-02-26T10:18:59.421Z,29.20
2019-02-26T10:21:29.358Z,32.10
2019-02-26T10:23:59.925Z,30.77
2019-02-26T10:26:31.337Z,31.73
2019-02-26T10:29:04.540Z,29.73
2019-02-26T10:31:33.826Z,28.50
2019-02-26T10:34:07.880Z,30.13
2019-02-26T10:36:40.866Z,29.07
2019-02-26T10:39:08.551Z,30.10
2019-02-26T10:41:41.744Z,29.63
2019-02-26T10:44:10.912Z,30.30
2019-02-26T10:46:42.554Z,28.27
2019-02-26T10:49:12.490Z,30.60
2019-02-26T10:51:43.103Z,28.90
2019-02-26T10:54:17.669Z,27.23
2019-02-26T10:56:44.927Z,27.70
2019-02-26T10:59:15.874Z,29.92
2019-02-26T11:01:49.625Z,28.93
2019-02-26T11:04:18.330Z,29.87
2019-02-26T11:06:48.009Z,28.40
2019-02-26T11:09:21.849Z,30.30
2019-02-26T11:11:49.142Z,28.03
2019-02-26T11:14:19.509Z,27.98
2019-02-26T11:16:49.208Z,28.47
2019-02-26T11:19:18.982Z,27.70
2019-02-26T11:21:50.803Z,28.33
2019-02-26T11:24:20.037Z,26.97
2019-02-26T11:26:49.711Z,27.17
2019-02-26T11:29:19.379Z,28.12
2019-02-26T11:31:49.730Z,24.17
2019-02-26T11:34:19.458Z,26.37
2019-02-26T11:36:49.141Z,24.13
2019-02-26T11:39:18.815Z,26.77
2019-02-26T11:41:50.732Z,27.10
2019-02-26T11:44:22.757Z,27.70
2019-02-26T11:46:53.735Z,25.50
2019-02-26T11:49:23.131Z,27.30
2019-02-26T11:51:53.211Z,27.77
2019-02-26T11:54:22.891Z,23.70
2019-02-26T11:56:52.665Z,27.13
2019-02-26T11:59:23.278Z,23.40
2019-02-26T12:01:54.128Z,22.47
2019-02-26T12:04:24.977Z,24.43
2019-02-26T12:06:58.385Z,23.77
2019-02-26T12:09:30.021Z,23.67
2019-02-26T12:12:00.809Z,23.63
2019-02-26T12:14:30.250Z,22.43
2019-02-26T12:17:00.275Z,24.07
2019-02-26T12:19:31.181Z,25.20
2019-02-26T12:22:03.593Z,21.73
2019-02-26T12:24:33.626Z,21.93
2019-02-26T12:27:07.124Z,23.18
2019-02-26T12:29:36.350Z,22.53
2019-02-26T12:32:07.039Z,20.93
2019-02-26T12:34:44.619Z,22.40
2019-02-26T12:37:14.870Z,22.30
2019-02-26T12:39:47.471Z,21.17
2019-02-26T12:42:18.476Z,19.67
2019-02-26T12:44:48.091Z,19.85
2019-02-26T12:47:21.772Z,20.80
2019-02-26T12:49:49.667Z,19.87
2019-02-26T12:52:21.922Z,24.33
2019-02-26T12:54:50.878Z,22.40
2019-02-26T12:57:25.465Z,22.63
2019-02-26T12:59:52.220Z,20.07
2019-02-26T13:02:25.678Z,17.98
2019-02-26T13:04:53.433Z,19.80
2019-02-26T13:07:23.130Z,18.00
2019-02-26T13:09:55.976Z,21.50
2019-02-26T13:12:28.862Z,17.70
2019-02-26T13:15:02.254Z,17.90
2019-02-26T13:17:29.485Z,15.20
2019-02-26T13:20:01.391Z,16.63
2019-02-26T13:22:31.617Z,17.23
2019-02-26T13:25:03.697Z,17.93
2019-02-26T13:27:32.686Z,17.97
2019-02-26T13:30:02.673Z,18.90
2019-02-26T13:32:53.866Z,16.93
2019-02-26T13:35:08.049Z,17.20
2019-02-26T13:37:41.946Z,17.97
2019-02-26T13:40:13.075Z,19.20
2019-02-26T13:42:42.750Z,16.30
2019-02-26T13:45:14.848Z,17.73
2019-02-26T13:47:44.672Z,17.20
2019-02-26T13:50:18.914Z,16.40
2019-02-26T13:52:48.599Z,15.40
2019-02-26T13:55:18.348Z,15.93
2019-02-26T13:57:48.267Z,15.30
2019-02-26T14:00:26.006Z,13.25
2019-02-26T14:02:50.087Z,13.70
2019-02-26T14:05:19.758Z,16.57
2019-02-26T14:07:49.583Z,14.40
2019-02-26T14:10:19.368Z,15.03
2019-02-26T14:12:49.384Z,14.00
2019-02-26T14:15:20.862Z,15.58
2019-02-26T14:17:50.731Z,15.30
2019-02-26T14:20:20.474Z,15.23
2019-02-26T14:22:50.325Z,14.60
2019-02-26T14:25:20.400Z,16.07
2019-02-26T14:27:50.147Z,13.93
2019-02-26T14:30:20.556Z,14.27
2019-02-26T14:32:50.343Z,14.03
2019-02-26T14:35:20.290Z,13.47
2019-02-26T14:37:52.067Z,13.63
2019-02-26T14:40:22.396Z,15.63
2019-02-26T14:42:52.150Z,14.47
2019-02-26T14:45:21.843Z,16.30
2019-02-26T14:47:51.544Z,13.93
2019-02-26T14:50:21.426Z,14.50
2019-02-26T14:52:51.163Z,15.37
2019-02-26T14:55:20.999Z,14.57
2019-02-26T14:57:53.859Z,14.53
2019-02-26T15:00:25.780Z,12.77
2019-02-26T15:02:56.342Z,13.97
2019-02-26T15:05:26.675Z,12.80
2019-02-26T15:07:57.050Z,12.53
2019-02-26T15:10:26.748Z,12.23
2019-02-26T15:12:56.600Z,14.07
2019-02-26T15:15:26.907Z,12.07
2019-02-26T15:17:56.577Z,12.07
2019-02-26T15:20:27.034Z,13.00
2019-02-26T15:22:56.740Z,12.40
2019-02-26T15:25:26.854Z,12.10
2019-02-26T15:28:04.641Z,13.30
2019-02-26T15:30:29.497Z,12.13
2019-02-26T15:32:59.238Z,17.40
2019-02-26T15:35:29.588Z,12.33
2019-02-26T15:37:59.708Z,12.23
2019-02-26T15:40:29.437Z,12.13
2019-02-26T15:42:59.448Z,12.90
2019-02-26T15:45:29.777Z,11.83
2019-02-26T15:48:03.786Z,12.07
2019-02-26T15:50:31.427Z,11.83
2019-02-26T15:53:07.398Z,14.97
2019-02-26T15:55:37.750Z,12.03
2019-02-26T15:58:08.026Z,14.47
2019-02-26T16:00:38.507Z,14.50
2019-02-26T16:03:08.890Z,15.27
2019-02-26T16:05:39.560Z,14.30
2019-02-26T16:08:09.857Z,14.40
2019-02-26T16:10:40.138Z,14.00
2019-02-26T16:13:10.373Z,15.40
2019-02-26T16:15:40.533Z,13.87
2019-02-26T16:18:10.484Z,13.48
2019-02-26T16:20:40.545Z,15.63
2019-02-26T16:23:10.271Z,17.40
2019-02-26T16:25:40.697Z,17.93
2019-02-26T16:28:10.955Z,17.60
2019-02-26T16:30:41.443Z,19.10
2019-02-26T16:33:13.681Z,19.73
2019-02-26T16:35:43.485Z,22.60
2019-02-26T16:38:14.821Z,18.75
2019-02-26T16:40:44.641Z,16.13
2019-02-26T16:43:14.849Z,18.60
2019-02-26T16:45:46.612Z,18.67
2019-02-26T16:48:16.988Z,20.27
2019-02-26T16:50:47.011Z,19.07
2019-02-26T16:53:17.293Z,19.77
2019-02-26T16:55:49.127Z,19.73
2019-02-26T16:58:19.993Z,21.17
2019-02-26T17:00:50.114Z,19.17
2019-02-26T17:03:20.747Z,19.93
2019-02-26T17:05:50.598Z,20.17
2019-02-26T17:08:20.357Z,19.53
2019-02-26T17:10:50.187Z,21.20
2019-02-26T17:13:19.890Z,22.43
2019-02-26T17:15:50.055Z,26.90
2019-02-26T17:18:19.815Z,30.97
2019-02-26T17:20:50.460Z,36.67
2019-02-26T17:23:20.324Z,43.57
2019-02-26T17:25:50.014Z,51.83
2019-02-26T17:28:19.807Z,50.92
2019-02-26T17:30:49.502Z,49.97
2019-02-26T17:33:19.449Z,42.97
2019-02-26T17:35:49.590Z,37.07
2019-02-26T17:38:19.520Z,38.07
2019-02-26T17:40:49.213Z,37.63
2019-02-26T17:43:18.901Z,36.75
2019-02-26T17:45:48.606Z,39.63
2019-02-26T17:48:18.303Z,48.87
2019-02-26T17:50:48.005Z,41.20
2019-02-26T17:53:17.942Z,34.47
2019-02-26T17:55:47.697Z,31.37
2019-02-26T17:58:17.378Z,27.65
2019-02-26T18:00:52.483Z,25.90
2019-02-26T18:03:25.839Z,22.57
2019-02-26T18:05:56.208Z,19.67
2019-02-26T18:08:26.979Z,22.10
2019-02-26T18:10:57.209Z,21.80
2019-02-26T18:13:27.179Z,20.53
2019-02-26T18:15:57.269Z,22.83
2019-02-26T18:18:28.265Z,20.10
2019-02-26T18:20:58.212Z,19.27
2019-02-26T18:23:28.032Z,16.47
2019-02-26T18:25:57.730Z,16.37
2019-02-26T18:28:27.458Z,19.00
2019-02-26T18:30:57.135Z,19.90
2019-02-26T18:33:26.995Z,18.83
2019-02-26T18:35:56.658Z,20.60
2019-02-26T18:38:26.495Z,17.90
2019-02-26T18:41:00.295Z,21.33
2019-02-26T18:43:27.722Z,20.72
2019-02-26T18:46:00.428Z,25.80
2019-02-26T18:48:29.047Z,23.63
2019-02-26T18:50:59.687Z,22.83
2019-02-26T18:53:30.286Z,22.40
2019-02-26T18:56:01.794Z,37.60
2019-02-26T18:58:31.572Z,46.90
2019-02-26T19:01:01.655Z,51.43
2019-02-26T19:03:31.694Z,43.10
2019-02-26T19:06:01.432Z,34.90
2019-02-26T19:08:31.185Z,30.50
2019-02-26T19:11:02.723Z,29.07
2019-02-26T19:13:33.268Z,27.17
2019-02-26T19:16:03.887Z,22.63
2019-02-26T19:18:35.750Z,24.70
2019-02-26T19:21:05.814Z,22.40
2019-02-26T19:23:35.532Z,21.37
2019-02-26T19:26:05.213Z,23.00
2019-02-26T19:28:34.949Z,22.80
2019-02-26T19:31:04.949Z,24.77
2019-02-26T19:33:34.698Z,22.63
2019-02-26T19:36:05.422Z,21.68
2019-02-26T19:38:35.110Z,22.17
2019-02-26T19:41:07.985Z,23.33
2019-02-26T19:43:37.656Z,19.30
2019-02-26T19:46:07.406Z,23.70
2019-02-26T19:48:37.118Z,24.03
2019-02-26T19:51:06.789Z,26.03
2019-02-26T19:53:37.429Z,60.97
2019-02-26T19:56:07.476Z,107.07
2019-02-26T19:58:40.611Z,129.70
2019-02-26T20:01:09.703Z,84.33
2019-02-26T20:03:40.344Z,61.10
2019-02-26T20:06:10.525Z,57.55
2019-02-26T20:08:40.222Z,49.70
2019-02-26T20:11:10.003Z,37.93
2019-02-26T20:13:42.218Z,35.37
2019-02-26T20:16:11.385Z,39.17
2019-02-26T20:18:41.038Z,36.43
2019-02-26T20:21:10.736Z,38.25
2019-02-26T20:23:41.990Z,32.80
2019-02-26T20:26:16.164Z,33.85
2019-02-26T20:28:43.198Z,50.53
2019-02-26T20:31:12.873Z,82.70
2019-02-26T20:33:43.520Z,84.87
2019-02-26T20:36:13.202Z,69.00
2019-02-26T20:38:43.024Z,52.70
2019-02-26T20:41:12.718Z,48.98
2019-02-26T20:43:42.403Z,42.67
2019-02-26T20:46:25.227Z,34.00
2019-02-26T20:48:55.025Z,29.97
2019-02-26T20:51:26.937Z,28.27
2019-02-26T20:53:56.099Z,28.57
2019-02-26T20:56:26.045Z,49.13
2019-02-26T20:58:55.759Z,59.77
2019-02-26T21:01:25.458Z,75.80
2019-02-26T21:03:55.156Z,92.93
2019-02-26T21:06:24.832Z,91.60
2019-02-26T21:08:54.605Z,77.23
2019-02-26T21:11:24.278Z,61.30
2019-02-26T21:13:53.944Z,51.17
2019-02-26T21:16:23.621Z,46.03
2019-02-26T21:18:53.323Z,34.63
2019-02-26T21:21:23.142Z,36.53
2019-02-26T21:23:53.065Z,42.80
2019-02-26T21:26:22.733Z,43.40
2019-02-26T21:28:52.418Z,43.50
2019-02-26T21:31:22.076Z,39.53
2019-02-26T21:33:51.903Z,36.50
2019-02-26T21:36:22.784Z,38.85
2019-02-26T21:38:52.673Z,40.93
2019-02-26T21:41:23.500Z,51.53
2019-02-26T21:43:53.694Z,69.03
2019-02-26T21:46:23.363Z,79.37
2019-02-26T21:48:53.196Z,67.30
2019-02-26T21:51:22.861Z,54.80
2019-02-26T21:53:52.538Z,43.13
2019-02-26T21:56:22.477Z,37.13
2019-02-26T21:58:52.166Z,34.27
2019-02-26T22:01:21.919Z,33.42
2019-02-26T22:03:55.762Z,28.13
2019-02-26T22:06:26.947Z,26.77
2019-02-26T22:08:57.090Z,28.20
2019-02-26T22:11:27.412Z,26.23
2019-02-26T22:13:57.065Z,29.13
2019-02-26T22:16:26.755Z,28.37
2019-02-26T22:18:58.185Z,29.87
2019-02-26T22:21:28.526Z,33.07
2019-02-26T22:23:58.195Z,34.70
2019-02-26T22:26:28.154Z,31.97
2019-02-26T22:28:57.847Z,31.57
2019-02-26T22:31:28.909Z,32.53
2019-02-26T22:34:00.066Z,32.07
2019-02-26T22:36:30.807Z,30.03
2019-02-26T22:39:01.849Z,29.77
2019-02-26T22:41:35.167Z,30.93
2019-02-26T22:44:04.929Z,29.20
2019-02-26T22:46:34.622Z,27.93
2019-02-26T22:49:05.164Z,27.03
2019-02-26T22:51:34.937Z,31.80
2019-02-26T22:54:07.622Z,28.20
2019-02-26T22:56:36.610Z,33.93
2019-02-26T22:59:08.023Z,30.47
2019-02-26T23:01:43.462Z,31.70
2019-02-26T23:04:13.396Z,33.05
2019-02-26T23:06:43.155Z,31.07
2019-02-26T23:09:21.269Z,31.00
2019-02-26T23:11:51.238Z,31.40
2019-02-26T23:14:22.040Z,34.27
2019-02-26T23:16:52.596Z,32.30
2019-02-26T23:19:22.844Z,40.25
2019-02-26T23:21:52.651Z,36.67
2019-02-26T23:24:22.352Z,38.10
2019-02-26T23:26:52.106Z,33.47
2019-02-26T23:29:22.195Z,32.50
2019-02-26T23:31:52.908Z,33.10
2019-02-26T23:34:23.115Z,32.28
2019-02-26T23:36:52.836Z,34.00
2019-02-26T23:39:22.648Z,30.08
2019-02-26T23:41:54.028Z,33.40
2019-02-26T23:44:23.771Z,33.17
2019-02-26T23:46:53.470Z,35.17
2019-02-26T23:49:23.490Z,31.73
2019-02-26T23:51:53.845Z,32.97
2019-02-26T23:54:24.244Z,30.80
2019-02-26T23:56:54.890Z,28.57
2019-02-26T23:59:24.829Z,27.43
